Time;durP1;ratioP1;P1;durP2;ratioP2;P2;SDS_P1;SDS_P2;PMS_P1;PMS_P2;Temp;Humidity;BMP_temperature;BMP_pressure;BME280_temperature;BME280_humidity;BME280_pressure;Samples;Min_cycle;Max_cycle;Signal;HPM_P1;HPM_P2
2021/12/29 00:00:43;;;;;;;7.15;1.40;;;17.80;57.90;;;;;;5003829;28;20092;-57
2021/12/29 00:03:09;;;;;;;1.60;1.27;;;17.70;57.70;;;;;;5004899;28;20034;-55
2021/12/29 00:05:34;;;;;;;2.85;1.20;;;17.80;57.70;;;;;;5004585;28;20443;-56
2021/12/29 00:08:00;;;;;;;2.35;0.98;;;17.80;57.60;;;;;;5005073;28;20113;-56
2021/12/29 00:10:26;;;;;;;3.50;1.35;;;17.90;57.50;;;;;;5002341;28;20108;-58
2021/12/29 00:12:53;;;;;;;5.13;1.20;;;17.90;57.30;;;;;;5004717;28;20058;-54
2021/12/29 00:15:20;;;;;;;2.65;1.30;;;17.90;57.10;;;;;;5003713;28;20537;-54
2021/12/29 00:17:45;;;;;;;2.70;1.40;;;18.00;57.00;;;;;;5003728;28;20038;-56
2021/12/29 00:20:13;;;;;;;3.17;1.17;;;18.00;57.00;;;;;;5002633;28;20022;-57
2021/12/29 00:22:39;;;;;;;3.63;1.05;;;18.00;56.90;;;;;;4992723;28;20022;-58
2021/12/29 00:25:05;;;;;;;3.33;1.27;;;18.00;56.90;;;;;;5004433;28;20032;-59
2021/12/29 00:27:30;;;;;;;2.78;1.08;;;18.00;56.90;;;;;;4995586;28;20037;-58
2021/12/29 00:29:56;;;;;;;3.05;0.93;;;18.00;56.80;;;;;;5002945;28;20022;-58
2021/12/29 00:32:21;;;;;;;3.60;1.10;;;18.00;56.70;;;;;;5009197;28;20025;-55
2021/12/29 00:34:47;;;;;;;1.75;1.10;;;18.10;56.70;;;;;;5004208;28;20025;-53
2021/12/29 00:37:12;;;;;;;2.35;1.17;;;18.00;56.80;;;;;;5004000;28;20105;-55
2021/12/29 00:39:38;;;;;;;2.75;1.38;;;17.90;57.00;;;;;;5004369;28;20041;-56
2021/12/29 00:42:03;;;;;;;2.88;1.10;;;17.90;57.10;;;;;;5007568;28;20497;-55
2021/12/29 00:44:32;;;;;;;3.35;1.08;;;17.90;57.20;;;;;;5001296;28;20049;-57
2021/12/29 00:46:57;;;;;;;3.10;1.00;;;17.90;57.20;;;;;;5002930;28;20041;-57
2021/12/29 00:49:30;;;;;;;1.60;1.23;;;17.90;57.30;;;;;;5002444;28;20412;-55
2021/12/29 00:51:55;;;;;;;2.75;0.80;;;17.90;57.20;;;;;;5002429;28;20424;-54
2021/12/29 00:54:21;;;;;;;0.98;0.65;;;18.00;57.10;;;;;;5002672;28;20072;-58
2021/12/29 00:56:47;;;;;;;2.25;1.00;;;18.00;57.00;;;;;;5002593;28;20041;-54
2021/12/29 00:59:13;;;;;;;1.88;0.82;;;18.00;57.10;;;;;;5002243;28;20042;-56
2021/12/29 01:01:38;;;;;;;2.60;0.80;;;17.90;57.10;;;;;;5002804;28;20042;-58
2021/12/29 01:04:04;;;;;;;2.30;0.70;;;18.00;57.20;;;;;;5002770;28;20034;-57
2021/12/29 01:06:29;;;;;;;1.98;0.90;;;17.90;57.20;;;;;;5003010;28;20033;-53
2021/12/29 01:08:55;;;;;;;1.63;0.90;;;18.00;57.30;;;;;;5002001;28;20040;-58
2021/12/29 01:11:22;;;;;;;1.58;0.88;;;18.00;57.30;;;;;;5001929;28;20029;-55
2021/12/29 01:13:48;;;;;;;2.40;0.80;;;18.00;57.30;;;;;;5002811;28;20030;-58
2021/12/29 01:19:09;;;;;;;1.77;0.80;;;18.00;57.40;;;;;;5001374;28;20092;-57
2021/12/29 01:21:35;;;;;;;2.35;0.90;;;18.00;57.30;;;;;;5002445;28;20053;-57
2021/12/29 01:24:02;;;;;;;4.93;1.38;;;18.00;57.40;;;;;;5002039;28;20558;-57
2021/12/29 01:26:27;;;;;;;2.15;1.10;;;18.00;57.40;;;;;;5002751;28;20042;-56
2021/12/29 01:28:53;;;;;;;1.58;1.08;;;17.90;57.30;;;;;;5002132;28;20034;-56
2021/12/29 01:31:18;;;;;;;1.77;0.80;;;17.90;57.30;;;;;;4997545;28;20037;-53
2021/12/29 01:33:44;;;;;;;1.77;0.60;;;18.00;57.40;;;;;;5012762;28;20038;-59
2021/12/29 01:36:09;;;;;;;2.42;1.02;;;17.90;57.30;;;;;;4999157;28;20036;-56
2021/12/29 01:38:35;;;;;;;2.20;0.77;;;17.90;57.30;;;;;;5010000;28;20413;-55
2021/12/29 01:41:01;;;;;;;1.63;0.88;;;17.90;57.30;;;;;;5002797;28;20034;-56
2021/12/29 01:43:26;;;;;;;1.35;0.82;;;18.00;57.30;;;;;;5002213;28;20125;-56
2021/12/29 01:45:52;;;;;;;1.83;0.73;;;18.00;57.30;;;;;;5002296;28;20030;-58
2021/12/29 01:48:17;;;;;;;3.70;0.70;;;18.00;57.20;;;;;;5002340;28;20640;-57
2021/12/29 01:50:48;;;;;;;1.88;0.90;;;18.00;57.10;;;;;;5001410;28;20041;-57
2021/12/29 01:53:22;;;;;;;1.10;0.70;;;18.00;57.10;;;;;;5002400;28;20033;-56
2021/12/29 01:55:47;;;;;;;2.75;0.98;;;18.00;57.10;;;;;;5001923;28;21012;-55
2021/12/29 01:58:13;;;;;;;1.15;0.52;;;18.00;57.00;;;;;;5002865;28;20037;-53
2021/12/29 02:00:39;;;;;;;1.58;0.60;;;18.00;57.00;;;;;;5002284;28;20033;-59
2021/12/29 02:03:07;;;;;;;2.65;0.80;;;18.00;57.10;;;;;;5002342;28;20033;-58
2021/12/29 02:05:34;;;;;;;1.15;0.82;;;17.90;57.20;;;;;;5002246;28;20608;-52
2021/12/29 02:07:59;;;;;;;2.03;0.70;;;17.90;57.30;;;;;;5002593;28;20041;-58
2021/12/29 02:10:30;;;;;;;2.70;1.23;;;17.90;57.40;;;;;;5002364;28;20038;-54
2021/12/29 02:12:56;;;;;;;0.77;0.50;;;17.90;57.50;;;;;;5001665;28;20046;-57
2021/12/29 02:15:22;;;;;;;1.65;0.55;;;17.80;57.50;;;;;;4983582;28;20104;-55
2021/12/29 02:17:49;;;;;;;1.85;0.80;;;17.80;57.50;;;;;;5001084;28;20022;-55
2021/12/29 02:20:18;;;;;;;2.50;1.13;;;17.80;57.50;;;;;;5000722;28;20022;-57
2021/12/29 02:22:50;;;;;;;1.05;0.50;;;17.80;57.60;;;;;;5002357;28;20029;-57
2021/12/29 02:27:49;;;;;;;1.63;0.57;;;17.80;57.60;;;;;;5005172;28;20108;-57
2021/12/29 02:30:16;;;;;;;0.90;0.40;;;17.80;57.60;;;;;;5006089;28;20045;-50
2021/12/29 02:32:42;;;;;;;1.42;0.60;;;17.80;57.60;;;;;;5004120;28;20504;-57
2021/12/29 02:35:08;;;;;;;1.05;0.60;;;17.70;57.50;;;;;;5004950;28;20031;-58
2021/12/29 02:37:34;;;;;;;1.20;0.60;;;17.70;57.60;;;;;;5006230;28;20029;-59
2021/12/29 02:39:59;;;;;;;0.60;0.40;;;17.70;57.60;;;;;;5004759;28;20034;-50
2021/12/29 02:42:28;;;;;;;2.88;0.60;;;17.70;57.60;;;;;;5006145;28;20117;-54
2021/12/29 02:44:54;;;;;;;1.27;0.60;;;17.70;57.50;;;;;;5006369;28;20164;-53
2021/12/29 02:47:19;;;;;;;1.40;0.50;;;17.70;57.50;;;;;;5005233;28;20125;-52
2021/12/29 02:49:45;;;;;;;1.17;0.70;;;17.70;57.60;;;;;;5006368;28;20029;-52
2021/12/29 02:52:11;;;;;;;0.90;0.43;;;17.70;57.50;;;;;;5005913;28;20088;-57
2021/12/29 02:54:37;;;;;;;3.08;0.65;;;17.70;57.50;;;;;;5005713;28;20034;-57
2021/12/29 02:57:03;;;;;;;1.00;0.57;;;17.70;57.60;;;;;;5005657;28;20033;-52
2021/12/29 02:59:28;;;;;;;2.15;1.15;;;17.70;57.50;;;;;;5004951;28;20037;-58
2021/12/29 03:01:54;;;;;;;0.90;0.57;;;17.60;57.50;;;;;;5005775;28;20506;-53
2021/12/29 03:04:19;;;;;;;1.42;0.50;;;17.70;57.60;;;;;;5005408;28;20025;-58
2021/12/29 03:06:45;;;;;;;1.60;0.45;;;17.60;57.60;;;;;;5004330;28;20034;-52
2021/12/29 03:09:11;;;;;;;1.02;0.50;;;17.60;57.50;;;;;;5003406;28;20034;-57
2021/12/29 03:11:37;;;;;;;1.73;0.55;;;17.60;57.50;;;;;;5004801;28;20045;-59
2021/12/29 03:14:03;;;;;;;1.40;0.55;;;17.60;57.60;;;;;;5005097;28;20405;-57
2021/12/29 03:16:29;;;;;;;1.23;0.80;;;17.60;57.50;;;;;;5003935;28;20569;-58
2021/12/29 03:18:54;;;;;;;1.60;0.60;;;17.60;57.50;;;;;;5003088;28;20037;-58
2021/12/29 03:21:20;;;;;;;1.10;0.50;;;17.60;57.60;;;;;;5005501;28;20032;-58
2021/12/29 03:23:45;;;;;;;3.58;0.60;;;17.60;57.60;;;;;;5005260;28;20030;-56
2021/12/29 03:26:11;;;;;;;1.33;0.50;;;17.60;57.60;;;;;;5004464;28;21582;-59
2021/12/29 03:28:37;;;;;;;1.00;0.50;;;17.60;57.70;;;;;;5002520;28;20042;-56
2021/12/29 03:31:03;;;;;;;1.73;0.47;;;17.60;57.70;;;;;;5004653;28;20088;-55
2021/12/29 03:33:31;;;;;;;0.50;0.30;;;17.60;57.80;;;;;;5001963;28;20141;-54
2021/12/29 03:36:01;;;;;;;0.57;0.47;;;17.60;57.90;;;;;;5004639;28;20478;-56
2021/12/29 03:38:26;;;;;;;3.45;0.50;;;17.60;57.90;;;;;;4997625;28;20293;-58
2021/12/29 03:40:52;;;;;;;2.22;0.57;;;17.60;57.90;;;;;;5004246;28;20030;-58
2021/12/29 03:43:18;;;;;;;1.23;0.55;;;17.60;57.90;;;;;;5002529;28;20037;-57
2021/12/29 03:45:45;;;;;;;0.68;0.43;;;17.60;57.80;;;;;;5003122;28;20481;-58
2021/12/29 03:48:11;;;;;;;2.50;0.60;;;17.60;57.80;;;;;;5004137;28;20095;-57
2021/12/29 03:50:36;;;;;;;0.85;0.35;;;17.60;57.80;;;;;;5004063;28;20038;-58
2021/12/29 03:53:02;;;;;;;1.17;0.30;;;17.60;57.70;;;;;;5003268;28;20038;-59
2021/12/29 03:55:28;;;;;;;1.60;0.50;;;17.60;57.70;;;;;;5005022;28;20034;-58
2021/12/29 03:57:54;;;;;;;1.10;0.40;;;17.60;57.70;;;;;;5004562;28;20044;-58
2021/12/29 04:00:20;;;;;;;1.27;0.30;;;17.60;57.70;;;;;;5002837;28;20026;-57
2021/12/29 04:02:46;;;;;;;0.73;0.38;;;17.60;57.70;;;;;;5003769;28;20029;-58
2021/12/29 04:05:14;;;;;;;0.75;0.50;;;17.60;57.60;;;;;;5002096;28;20310;-57
2021/12/29 04:07:40;;;;;;;1.70;0.50;;;17.60;57.60;;;;;;5003019;28;20037;-58
2021/12/29 04:10:06;;;;;;;0.68;0.30;;;17.60;57.60;;;;;;5003462;28;20040;-56
2021/12/29 04:12:31;;;;;;;2.03;0.57;;;17.60;57.50;;;;;;5004198;28;20038;-57
2021/12/29 04:14:57;;;;;;;0.60;0.40;;;17.60;57.50;;;;;;5003652;28;20412;-57
2021/12/29 04:17:29;;;;;;;1.75;0.40;;;17.60;57.40;;;;;;5004136;28;20037;-58
2021/12/29 04:22:38;;;;;;;0.57;0.30;;;17.60;57.30;;;;;;5003815;28;20032;-59
2021/12/29 04:25:04;;;;;;;2.33;0.40;;;17.60;57.30;;;;;;5003889;28;20223;-58
2021/12/29 04:27:30;;;;;;;1.42;0.50;;;17.60;57.30;;;;;;5003699;28;20040;-56
2021/12/29 04:29:55;;;;;;;0.88;0.40;;;17.60;57.30;;;;;;5002460;28;20030;-56
2021/12/29 04:32:21;;;;;;;1.10;0.30;;;17.60;57.20;;;;;;5001320;28;20029;-57
2021/12/29 04:34:46;;;;;;;1.02;0.40;;;17.60;57.20;;;;;;5003982;28;20410;-58
2021/12/29 04:37:12;;;;;;;0.45;0.30;;;17.60;57.20;;;;;;5003413;28;20735;-57
2021/12/29 04:39:37;;;;;;;0.60;0.50;;;17.60;57.10;;;;;;5003148;28;20113;-58
2021/12/29 04:42:03;;;;;;;0.63;0.38;;;17.70;57.10;;;;;;5003185;28;20034;-55
2021/12/29 04:44:28;;;;;;;0.68;0.30;;;17.70;57.00;;;;;;5002973;28;20034;-56
2021/12/29 04:46:55;;;;;;;0.88;0.40;;;17.70;56.90;;;;;;5003170;28;20509;-56
2021/12/29 04:49:26;;;;;;;2.33;0.40;;;17.70;56.90;;;;;;5002143;28;20037;-56
2021/12/29 04:51:56;;;;;;;1.38;0.40;;;17.70;56.80;;;;;;5000332;28;20540;-54
2021/12/29 04:54:21;;;;;;;1.20;0.40;;;17.70;56.80;;;;;;5003234;28;20037;-58
2021/12/29 04:56:47;;;;;;;3.15;0.40;;;17.70;56.70;;;;;;5003269;28;20513;-56
2021/12/29 04:59:15;;;;;;;1.27;0.30;;;17.70;56.60;;;;;;5002544;28;20108;-57
2021/12/29 05:01:41;;;;;;;0.75;0.43;;;17.70;56.60;;;;;;5002978;28;20053;-57
2021/12/29 05:04:07;;;;;;;1.77;0.40;;;17.80;56.60;;;;;;5002688;28;20493;-57
2021/12/29 05:09:16;;;;;;;1.23;0.40;;;17.80;56.40;;;;;;4996095;28;20103;-55
2021/12/29 05:11:42;;;;;;;2.90;0.40;;;17.80;56.40;;;;;;5002533;28;20219;-58
2021/12/29 05:14:07;;;;;;;1.45;0.50;;;17.80;56.40;;;;;;5002761;28;20037;-55
2021/12/29 05:16:33;;;;;;;2.53;0.45;;;17.80;56.30;;;;;;5003036;28;20100;-56
2021/12/29 05:18:58;;;;;;;0.57;0.30;;;17.80;56.30;;;;;;5001628;28;20426;-56
2021/12/29 05:21:25;;;;;;;1.20;0.40;;;17.80;56.20;;;;;;5002812;28;20046;-55
2021/12/29 05:23:51;;;;;;;1.05;0.50;;;17.90;56.30;;;;;;5002770;28;20026;-58
2021/12/29 05:26:17;;;;;;;3.10;0.60;;;17.80;56.30;;;;;;5002995;28;20038;-57
2021/12/29 05:28:43;;;;;;;2.15;0.60;;;17.80;56.30;;;;;;5001931;28;20026;-58
2021/12/29 05:31:09;;;;;;;3.20;0.40;;;17.90;56.40;;;;;;5002725;28;20497;-58
2021/12/29 05:33:34;;;;;;;3.13;0.47;;;17.90;56.40;;;;;;5000991;28;20100;-58
2021/12/29 05:36:00;;;;;;;3.03;0.80;;;17.90;56.40;;;;;;5002986;28;20136;-59
2021/12/29 05:39:03;;;;;;;4.45;0.47;;;17.90;56.40;;;;;;4992362;28;20054;-59
2021/12/29 05:41:28;;;;;;;6.03;0.47;;;17.90;56.40;;;;;;5001423;28;20116;-57
2021/12/29 05:43:54;;;;;;;1.02;0.60;;;17.90;56.40;;;;;;5002087;28;20079;-58
2021/12/29 05:46:19;;;;;;;2.25;0.50;;;18.00;56.30;;;;;;5004722;28;20324;-56
2021/12/29 05:48:45;;;;;;;1.75;0.50;;;18.00;56.10;;;;;;5001212;28;20831;-58
2021/12/29 05:51:12;;;;;;;0.77;0.40;;;18.00;55.90;;;;;;5002248;28;20482;-53
2021/12/29 05:53:39;;;;;;;1.88;0.40;;;18.00;55.80;;;;;;5002367;28;20034;-56
2021/12/29 05:56:05;;;;;;;1.67;0.40;;;18.00;55.70;;;;;;5001934;28;20044;-57
2021/12/29 05:58:30;;;;;;;2.97;0.55;;;18.00;55.60;;;;;;5001623;28;20034;-55
2021/12/29 06:00:56;;;;;;;1.88;1.02;;;18.00;55.50;;;;;;5001851;28;20022;-57
2021/12/29 06:03:21;;;;;;;1.35;0.45;;;18.00;55.40;;;;;;5001656;28;20036;-58
2021/12/29 06:05:47;;;;;;;1.00;0.50;;;18.00;55.40;;;;;;5002808;28;20022;-56
2021/12/29 06:08:12;;;;;;;1.90;0.38;;;18.00;55.90;;;;;;5002180;28;20748;-57
2021/12/29 06:10:38;;;;;;;2.47;0.60;;;18.00;55.30;;;;;;5001849;28;20037;-59
2021/12/29 06:13:03;;;;;;;2.28;0.52;;;18.00;55.70;;;;;;5001367;28;20045;-58
2021/12/29 06:15:29;;;;;;;2.50;1.00;;;18.00;55.90;;;;;;5002383;28;20037;-56
2021/12/29 06:17:55;;;;;;;1.95;0.35;;;18.00;56.00;;;;;;5000892;28;20034;-56
2021/12/29 06:20:20;;;;;;;2.58;0.60;;;18.00;56.10;;;;;;5000113;28;20026;-56
2021/12/29 06:22:46;;;;;;;1.20;0.52;;;18.00;56.30;;;;;;5000531;28;20083;-58
2021/12/29 06:25:13;;;;;;;1.42;0.60;;;18.00;56.40;;;;;;5000499;28;20026;-58
2021/12/29 06:27:38;;;;;;;1.13;0.20;;;17.90;56.30;;;;;;4999483;28;20711;-55
2021/12/29 06:30:05;;;;;;;3.22;0.50;;;18.00;56.30;;;;;;5000853;28;20030;-58
2021/12/29 06:32:31;;;;;;;2.15;0.45;;;18.00;56.30;;;;;;5001001;28;20053;-57
2021/12/29 06:34:56;;;;;;;3.25;0.60;;;17.90;56.20;;;;;;5001996;28;20107;-56
2021/12/29 06:37:22;;;;;;;4.25;0.50;;;17.90;56.20;;;;;;5002059;28;20196;-56
2021/12/29 06:39:48;;;;;;;3.35;0.60;;;17.90;56.20;;;;;;5001388;28;20034;-57
2021/12/29 06:42:15;;;;;;;0.93;0.40;;;17.90;56.20;;;;;;5001685;28;20165;-57
2021/12/29 06:44:44;;;;;;;3.28;0.50;;;17.90;56.20;;;;;;4984491;28;20133;-58
2021/12/29 06:47:09;;;;;;;2.50;0.40;;;17.90;56.30;;;;;;5010276;28;20038;-58
2021/12/29 06:49:35;;;;;;;1.92;0.52;;;17.90;56.40;;;;;;5001437;28;20088;-58
2021/12/29 06:52:02;;;;;;;1.05;0.77;;;17.80;56.40;;;;;;5001592;28;20282;-55
2021/12/29 06:54:27;;;;;;;0.73;0.30;;;17.80;56.40;;;;;;5000209;28;20652;-57
2021/12/29 06:56:53;;;;;;;2.08;0.70;;;17.80;56.40;;;;;;5000565;28;20097;-58
2021/12/29 06:59:18;;;;;;;0.55;0.30;;;17.80;56.40;;;;;;5000604;28;20030;-57
2021/12/29 07:01:44;;;;;;;3.08;0.30;;;17.80;56.40;;;;;;5000771;28;20041;-58
2021/12/29 07:04:09;;;;;;;1.83;0.30;;;17.80;56.40;;;;;;5001109;28;20054;-58
2021/12/29 07:06:35;;;;;;;2.22;0.77;;;17.80;56.50;;;;;;5000781;28;20041;-57
2021/12/29 07:09:00;;;;;;;1.55;0.30;;;17.80;56.60;;;;;;5003739;28;20080;-58
2021/12/29 07:11:26;;;;;;;0.45;0.22;;;17.80;56.50;;;;;;5004739;28;20502;-58
2021/12/29 07:13:51;;;;;;;1.40;0.40;;;17.80;56.50;;;;;;5004611;28;20030;-58
2021/12/29 07:16:17;;;;;;;2.17;0.40;;;17.80;56.40;;;;;;5004237;28;20041;-59
2021/12/29 07:18:43;;;;;;;1.23;0.30;;;17.90;56.30;;;;;;5004670;28;20060;-58
2021/12/29 07:21:08;;;;;;;0.45;0.30;;;17.90;56.90;;;;;;5004699;28;20061;-57
2021/12/29 07:23:34;;;;;;;1.75;0.20;;;17.90;56.20;;;;;;5004697;28;20144;-56
2021/12/29 07:25:59;;;;;;;2.40;0.45;;;17.90;56.10;;;;;;5019814;22;20790;-57
2021/12/29 07:28:25;;;;;;;1.10;0.40;;;17.90;56.00;;;;;;4998773;28;20057;-56
2021/12/29 07:30:50;;;;;;;0.88;0.65;;;17.90;56.00;;;;;;5003880;28;20388;-53
2021/12/29 07:33:16;;;;;;;1.77;0.40;;;18.00;55.90;;;;;;5004263;28;20036;-50
2021/12/29 07:35:41;;;;;;;2.03;0.43;;;18.00;55.90;;;;;;5004027;28;20065;-54
2021/12/29 07:38:07;;;;;;;4.63;0.40;;;18.00;55.80;;;;;;5023850;28;20697;-54
2021/12/29 07:40:34;;;;;;;3.58;0.82;;;18.00;55.70;;;;;;5022623;28;20664;-54
2021/12/29 07:43:00;;;;;;;2.25;0.40;;;18.00;55.70;;;;;;5023393;28;20034;-53
2021/12/29 07:45:26;;;;;;;3.50;0.40;;;18.00;55.70;;;;;;5021973;28;20049;-54
2021/12/29 07:47:52;;;;;;;1.67;0.50;;;18.00;55.70;;;;;;5022653;28;20045;-57
2021/12/29 07:50:18;;;;;;;5.97;0.70;;;18.00;55.70;;;;;;5022836;28;20026;-59
2021/12/29 07:52:47;;;;;;;0.65;0.30;;;18.00;55.60;;;;;;5022049;28;20094;-53
2021/12/29 07:55:20;;;;;;;2.45;0.43;;;18.00;55.60;;;;;;5022774;28;20035;-54
2021/12/29 07:57:46;;;;;;;0.65;0.40;;;18.00;56.20;;;;;;5017621;28;20373;-53
2021/12/29 08:00:12;;;;;;;4.95;0.65;;;18.00;56.50;;;;;;5022572;28;20026;-51
2021/12/29 08:02:38;;;;;;;1.42;0.43;;;18.00;56.40;;;;;;5022858;28;20025;-51
2021/12/29 08:05:07;;;;;;;1.23;0.40;;;18.00;56.80;;;;;;5004454;28;20672;-54
2021/12/29 08:07:33;;;;;;;2.97;0.40;;;18.00;57.20;;;;;;5004103;28;20037;-52
2021/12/29 08:09:59;;;;;;;3.65;0.70;;;18.00;57.30;;;;;;5021227;28;20037;-59
2021/12/29 08:12:24;;;;;;;2.30;0.43;;;18.00;57.40;;;;;;5018715;28;20034;-56
2021/12/29 08:14:51;;;;;;;1.38;0.40;;;18.00;57.50;;;;;;5020536;28;21932;-53
2021/12/29 08:17:16;;;;;;;2.78;0.90;;;18.00;57.50;;;;;;5021698;28;20033;-51
2021/12/29 08:19:42;;;;;;;6.97;1.27;;;18.00;57.50;;;;;;5019397;28;20033;-53
2021/12/29 08:22:08;;;;;;;6.82;1.27;;;18.00;57.60;;;;;;5023300;28;20975;-52
2021/12/29 08:24:33;;;;;;;7.80;1.20;;;18.00;57.60;;;;;;5022807;28;20113;-56
2021/12/29 08:26:59;;;;;;;6.50;1.05;;;18.00;57.60;;;;;;5021698;28;20029;-56
2021/12/29 08:29:24;;;;;;;7.30;1.70;;;18.00;57.60;;;;;;5022574;28;20034;-55
2021/12/29 08:31:50;;;;;;;8.40;1.15;;;18.00;57.50;;;;;;5023696;28;20025;-56
2021/12/29 08:34:15;;;;;;;7.10;1.20;;;18.00;57.40;;;;;;5020641;28;20607;-56
2021/12/29 08:36:41;;;;;;;7.13;0.98;;;18.00;57.20;;;;;;5022867;28;20040;-54
2021/12/29 08:39:07;;;;;;;4.07;1.00;;;18.00;57.10;;;;;;5022090;28;20041;-55
2021/12/29 08:41:32;;;;;;;4.00;1.02;;;18.00;57.00;;;;;;5021468;28;20040;-58
2021/12/29 08:43:58;;;;;;;9.23;1.25;;;18.00;57.00;;;;;;5022448;28;20048;-57
2021/12/29 08:46:23;;;;;;;4.20;1.00;;;18.00;56.90;;;;;;5021441;28;20087;-53
2021/12/29 08:48:49;;;;;;;9.95;1.10;;;18.00;56.80;;;;;;5021860;28;20034;-50
2021/12/29 08:51:15;;;;;;;4.82;1.40;;;18.10;56.70;;;;;;5022995;28;20835;-53
2021/12/29 08:53:40;;;;;;;5.03;1.02;;;18.00;56.70;;;;;;5023696;28;20037;-50
2021/12/29 08:56:07;;;;;;;7.47;1.15;;;18.00;56.60;;;;;;5022320;28;20029;-51
2021/12/29 08:58:32;;;;;;;5.55;1.65;;;18.00;56.60;;;;;;5022381;28;20040;-49
2021/12/29 09:00:59;;;;;;;4.72;0.82;;;18.00;56.50;;;;;;5021104;28;20404;-55
2021/12/29 09:03:25;;;;;;;3.15;0.77;;;18.00;56.40;;;;;;5022443;28;20026;-58
2021/12/29 09:05:50;;;;;;;4.25;0.90;;;18.00;56.30;;;;;;5022303;28;20029;-55
2021/12/29 09:08:16;;;;;;;8.43;1.58;;;18.00;56.30;;;;;;5020349;28;20497;-57
2021/12/29 09:10:42;;;;;;;4.82;1.02;;;18.00;56.20;;;;;;5022191;28;20172;-58
2021/12/29 09:13:07;;;;;;;4.28;0.75;;;18.00;56.40;;;;;;5020814;28;20038;-58
2021/12/29 09:15:33;;;;;;;2.45;0.70;;;18.00;56.40;;;;;;5023025;28;20055;-49
2021/12/29 09:17:59;;;;;;;2.58;0.70;;;18.00;56.40;;;;;;5021805;28;20036;-50
2021/12/29 09:20:27;;;;;;;6.22;0.90;;;18.00;56.60;;;;;;5022227;28;20038;-61
2021/12/29 09:22:54;;;;;;;2.33;0.68;;;18.00;56.60;;;;;;5023715;28;20040;-50
2021/12/29 09:25:20;;;;;;;2.58;0.60;;;18.00;56.60;;;;;;5022453;28;20026;-54
2021/12/29 09:27:49;;;;;;;2.80;0.60;;;18.00;56.50;;;;;;5022459;28;20562;-58
2021/12/29 09:30:17;;;;;;;1.80;0.80;;;18.00;56.50;;;;;;5021552;28;20128;-50
2021/12/29 09:32:42;;;;;;;3.25;0.75;;;18.00;56.50;;;;;;5022470;28;20653;-52
2021/12/29 09:35:08;;;;;;;4.68;1.00;;;18.00;56.40;;;;;;5022121;28;20036;-59
2021/12/29 09:37:33;;;;;;;2.53;0.90;;;18.00;56.40;;;;;;5022861;28;20036;-52
2021/12/29 09:39:59;;;;;;;2.95;0.77;;;18.00;56.40;;;;;;5021296;28;20026;-50
2021/12/29 09:42:24;;;;;;;4.80;0.98;;;18.00;56.30;;;;;;5021221;28;20400;-53
2021/12/29 09:44:51;;;;;;;2.58;0.85;;;18.00;56.30;;;;;;5022003;28;20033;-53
2021/12/29 09:47:17;;;;;;;1.67;0.80;;;18.00;56.30;;;;;;5020435;28;20498;-56
2021/12/29 09:49:42;;;;;;;2.05;0.90;;;18.00;56.20;;;;;;5021053;28;20033;-57
2021/12/29 09:52:08;;;;;;;1.67;0.80;;;18.00;56.20;;;;;;5020866;28;20485;-50
2021/12/29 09:54:33;;;;;;;2.63;0.65;;;18.00;56.20;;;;;;5022052;28;20393;-52
2021/12/29 09:57:00;;;;;;;2.45;0.73;;;17.90;56.10;;;;;;5021438;28;20055;-52
2021/12/29 09:59:25;;;;;;;1.35;0.70;;;17.90;56.10;;;;;;5021187;28;20045;-54
2021/12/29 10:01:51;;;;;;;2.85;1.83;;;17.90;56.10;;;;;;5021166;28;20396;-55
2021/12/29 10:04:16;;;;;;;4.07;1.13;;;17.90;56.10;;;;;;5021114;28;20032;-58
2021/12/29 10:06:42;;;;;;;2.78;0.68;;;17.90;56.00;;;;;;5021958;28;20030;-52
2021/12/29 10:09:13;;;;;;;1.67;0.90;;;17.90;56.00;;;;;;5020010;28;20511;-55
2021/12/29 10:11:39;;;;;;;1.35;0.60;;;17.90;56.00;;;;;;5019847;28;20044;-51
2021/12/29 10:14:12;;;;;;;2.22;0.52;;;17.90;56.00;;;;;;5020792;28;20699;-53
2021/12/29 10:16:39;;;;;;;2.47;0.55;;;17.90;56.00;;;;;;5021290;28;20416;-53
2021/12/29 10:19:12;;;;;;;1.17;0.73;;;17.90;55.90;;;;;;5019849;28;20164;-57
2021/12/29 10:21:41;;;;;;;1.83;0.60;;;17.90;55.90;;;;;;5020755;28;20037;-58
2021/12/29 10:24:06;;;;;;;1.52;0.70;;;17.90;55.90;;;;;;5019655;28;20029;-52
2021/12/29 10:26:40;;;;;;;1.42;0.85;;;17.90;55.90;;;;;;5021593;28;20432;-54
2021/12/29 10:29:10;;;;;;;1.08;0.75;;;17.90;55.90;;;;;;5003692;28;20111;-58
2021/12/29 10:31:39;;;;;;;1.33;0.60;;;17.90;55.80;;;;;;5021823;28;20041;-56
2021/12/29 10:34:10;;;;;;;3.33;1.10;;;17.90;55.90;;;;;;5000972;28;20036;-52
2021/12/29 10:37:11;;;;;;;2.65;0.85;;;17.90;55.90;;;;;;5027138;28;20029;-61
2021/12/29 10:39:42;;;;;;;1.52;0.70;;;17.90;55.90;;;;;;5008863;28;20034;-57
2021/12/29 10:42:19;;;;;;;2.15;0.88;;;17.90;55.80;;;;;;5020315;28;20033;-59
2021/12/29 10:44:53;;;;;;;1.20;0.93;;;17.90;55.80;;;;;;5007717;28;20038;-51
2021/12/29 10:47:20;;;;;;;1.25;0.70;;;17.90;55.80;;;;;;5025786;28;20053;-58
2021/12/29 10:50:14;;;;;;;2.20;0.90;;;17.90;55.80;;;;;;5024787;28;20029;-57
2021/12/29 10:52:43;;;;;;;2.60;0.90;;;17.90;55.70;;;;;;5024365;28;20034;-55
2021/12/29 10:55:17;;;;;;;3.03;0.75;;;17.90;55.70;;;;;;5016454;28;20103;-53
2021/12/29 10:57:43;;;;;;;2.42;0.85;;;17.90;55.70;;;;;;5033224;28;20563;-54
2021/12/29 11:00:12;;;;;;;1.05;0.70;;;17.90;55.70;;;;;;5024839;28;20041;-57
2021/12/29 11:02:37;;;;;;;1.63;0.80;;;17.90;55.70;;;;;;5023492;28;20108;-52
2021/12/29 11:05:05;;;;;;;1.02;0.88;;;17.90;55.70;;;;;;5025521;28;20108;-53
2021/12/29 11:07:32;;;;;;;2.47;1.13;;;17.90;55.70;;;;;;5025749;28;20033;-53
2021/12/29 11:10:14;;;;;;;1.17;0.77;;;17.90;55.70;;;;;;5018671;28;20504;-58
2021/12/29 11:12:47;;;;;;;2.35;0.70;;;17.90;55.70;;;;;;5031285;28;20048;-55
2021/12/29 11:15:27;;;;;;;1.58;0.80;;;17.90;55.70;;;;;;5024652;28;20116;-51
2021/12/29 11:17:53;;;;;;;0.85;0.70;;;17.90;55.70;;;;;;5004343;28;20114;-50
2021/12/29 11:20:21;;;;;;;1.75;0.70;;;17.90;55.80;;;;;;5022373;28;20037;-53
2021/12/29 11:22:46;;;;;;;1.00;0.60;;;17.90;55.80;;;;;;5025366;28;20435;-53
2021/12/29 11:25:12;;;;;;;1.45;0.70;;;17.80;55.70;;;;;;5025457;28;20036;-50
2021/12/29 11:27:37;;;;;;;1.27;0.60;;;17.80;55.70;;;;;;5024703;28;20033;-55
2021/12/29 11:30:11;;;;;;;1.15;0.80;;;17.80;55.70;;;;;;5024853;28;20149;-51
2021/12/29 11:32:42;;;;;;;1.10;0.80;;;17.80;55.80;;;;;;5018641;28;20121;-52
2021/12/29 11:35:09;;;;;;;1.45;0.73;;;17.80;55.80;;;;;;5024519;28;20068;-60
2021/12/29 11:37:40;;;;;;;2.00;0.60;;;17.80;56.30;;;;;;5025228;28;20040;-56
2021/12/29 11:40:07;;;;;;;1.05;0.70;;;17.80;56.20;;;;;;5024323;28;20045;-56
2021/12/29 11:42:32;;;;;;;1.15;0.68;;;17.70;56.10;;;;;;5024524;28;20064;-50
2021/12/29 11:44:58;;;;;;;1.08;0.63;;;17.80;56.20;;;;;;5025340;28;20540;-52
2021/12/29 11:47:23;;;;;;;3.30;0.73;;;17.80;57.10;;;;;;5023003;28;20488;-52
2021/12/29 11:49:49;;;;;;;2.22;0.80;;;17.80;57.70;;;;;;5024127;28;20124;-50
2021/12/29 11:52:17;;;;;;;5.20;0.80;;;17.80;58.70;;;;;;5024376;28;20030;-54
2021/12/29 11:55:06;;;;;;;1.83;0.88;;;17.90;58.30;;;;;;5024220;28;20029;-53
2021/12/29 11:57:34;;;;;;;3.17;0.63;;;17.90;58.30;;;;;;5023503;28;20037;-55
2021/12/29 12:00:22;;;;;;;2.45;0.63;;;17.90;58.40;;;;;;5024868;28;20045;-54
2021/12/29 12:02:51;;;;;;;4.50;0.65;;;17.90;59.10;;;;;;5006875;28;20764;-55
2021/12/29 12:05:22;;;;;;;1.88;0.70;;;17.90;58.60;;;;;;5024152;28;20026;-51
2021/12/29 12:07:48;;;;;;;5.43;1.13;;;17.90;58.60;;;;;;5023064;28;20029;-55
2021/12/29 12:10:35;;;;;;;4.22;0.68;;;17.90;58.70;;;;;;5023086;28;20560;-53
2021/12/29 12:13:04;;;;;;;8.48;1.23;;;17.90;58.90;;;;;;5023676;28;20033;-53
2021/12/29 12:15:31;;;;;;;4.20;0.80;;;17.90;58.90;;;;;;5024103;28;20038;-56
2021/12/29 12:18:05;;;;;;;1.88;0.82;;;17.90;58.60;;;;;;5019992;28;20041;-57
2021/12/29 12:20:41;;;;;;;2.97;0.80;;;17.90;58.10;;;;;;5023478;28;20045;-57
2021/12/29 12:23:07;;;;;;;3.55;0.80;;;17.90;57.70;;;;;;5022693;28;20021;-56
2021/12/29 12:25:33;;;;;;;1.70;1.00;;;17.90;57.50;;;;;;5024158;28;20064;-56
2021/12/29 12:28:03;;;;;;;2.53;1.02;;;17.90;57.30;;;;;;5023237;28;20500;-55
2021/12/29 12:30:45;;;;;;;1.67;1.27;;;17.90;57.30;;;;;;5016631;28;20834;-52
2021/12/29 12:33:17;;;;;;;4.32;1.75;;;17.90;57.30;;;;;;5021616;28;20053;-60
2021/12/29 12:35:45;;;;;;;4.85;2.28;;;17.90;57.10;;;;;;5021587;28;20090;-56
2021/12/29 12:38:11;;;;;;;4.28;2.92;;;17.90;57.10;;;;;;5023573;28;20036;-56
2021/12/29 12:40:37;;;;;;;3.17;1.77;;;17.90;57.00;;;;;;5023185;28;20033;-57
2021/12/29 12:43:06;;;;;;;5.47;2.60;;;17.90;56.90;;;;;;5022236;28;20156;-54
2021/12/29 12:45:33;;;;;;;4.30;2.33;;;17.90;56.80;;;;;;5022810;28;20405;-56
2021/12/29 12:48:13;;;;;;;3.70;2.15;;;17.80;56.70;;;;;;5005912;28;20037;-54
2021/12/29 12:50:40;;;;;;;2.80;2.20;;;17.80;56.70;;;;;;5015161;28;20574;-52
2021/12/29 12:53:07;;;;;;;3.67;1.98;;;17.80;56.60;;;;;;5022173;28;20029;-55
2021/12/29 12:55:51;;;;;;;2.67;1.52;;;17.80;56.60;;;;;;5023607;28;20268;-51
2021/12/29 12:58:17;;;;;;;2.47;1.50;;;17.80;56.60;;;;;;5022482;28;20079;-53